Time;durP1;ratioP1;P1;durP2;ratioP2;P2;SDS_P1;SDS_P2;PMS_P1;PMS_P2;Temp;Humidity;BMP_temperature;BMP_pressure;BME280_temperature;BME280_humidity;BME280_pressure;Samples;Min_cycle;Max_cycle;Signal;HPM_P1;HPM_P2
2022/05/05 00:00:21;;;;;;;25.12;12.53;;;;;;;5.36;54.10;101746.67;1768817;78;21210;-83
2022/05/05 00:02:52;;;;;;;28.10;12.50;;;;;;;5.39;54.29;101738.63;1787324;79;21121;-83
2022/05/05 00:05:18;;;;;;;26.40;12.15;;;;;;;5.46;54.39;101745.12;1786249;79;21043;-83
2022/05/05 00:07:45;;;;;;;29.02;13.10;;;;;;;5.54;54.54;101745.63;1786424;78;21751;-83
2022/05/05 00:15:42;;;;;;;25.12;11.80;;;;;;;5.82;54.76;101741.66;1770095;80;21090;-85
2022/05/05 00:18:10;;;;;;;26.85;12.05;;;;;;;5.87;54.78;101738.90;1782888;79;21053;-86
2022/05/05 00:20:36;;;;;;;23.02;12.05;;;;;;;5.92;54.70;101737.89;1768733;79;21868;-82
2022/05/05 00:23:04;;;;;;;24.40;13.35;;;;;;;5.96;54.75;101744.71;1787304;79;21054;-83
2022/05/05 00:25:34;;;;;;;36.75;14.68;;;;;;;6.01;54.78;101748.51;1792565;79;21040;-83
2022/05/05 00:28:01;;;;;;;25.20;12.43;;;;;;;6.02;54.85;101746.41;1789566;79;21067;-85
2022/05/05 00:30:29;;;;;;;23.95;12.43;;;;;;;6.03;54.85;101743.38;1776081;79;21560;-88
2022/05/05 00:32:56;;;;;;;20.80;10.95;;;;;;;6.02;54.81;101738.56;1781713;79;22561;-88
2022/05/05 00:35:25;;;;;;;22.80;11.97;;;;;;;6.00;54.78;101740.16;1778221;79;21081;-88
2022/05/05 00:37:51;;;;;;;19.40;10.70;;;;;;;6.00;54.75;101737.55;1795999;79;21022;-88
2022/05/05 00:40:18;;;;;;;20.45;11.38;;;;;;;6.00;54.79;101737.55;1785267;79;21643;-86
2022/05/05 00:42:45;;;;;;;22.37;11.10;;;;;;;6.04;54.79;101736.02;1778985;79;21034;-88
2022/05/05 00:45:13;;;;;;;25.52;11.10;;;;;;;6.09;54.80;101732.38;1776744;79;22548;-85
2022/05/05 00:47:40;;;;;;;19.05;10.05;;;;;;;6.14;54.76;101736.17;1794085;79;21062;-85
2022/05/05 00:50:08;;;;;;;24.95;11.00;;;;;;;6.19;54.80;101738.63;1778314;79;21073;-84
2022/05/05 00:52:35;;;;;;;24.77;11.65;;;;;;;6.23;54.84;101737.98;1791191;79;21155;-83
2022/05/05 00:55:03;;;;;;;23.00;11.45;;;;;;;6.29;54.88;101737.06;1778632;79;21287;-85
2022/05/05 00:57:30;;;;;;;21.52;10.30;;;;;;;6.34;54.83;101742.13;1794335;79;21728;-86
2022/05/05 00:59:57;;;;;;;24.30;10.93;;;;;;;6.40;54.82;101733.36;1791129;79;21077;-86
2022/05/05 01:02:24;;;;;;;18.35;10.53;;;;;;;6.49;54.71;101732.07;1776770;79;21090;-86
2022/05/05 01:04:50;;;;;;;20.25;10.08;;;;;;;6.57;54.70;101730.81;1786861;79;21345;-85
2022/05/05 01:07:18;;;;;;;21.42;10.45;;;;;;;6.66;54.63;101727.80;1793331;79;21352;-83
2022/05/05 01:09:45;;;;;;;22.70;10.25;;;;;;;6.73;54.58;101726.02;1793253;78;22603;-86
2022/05/05 01:12:12;;;;;;;20.15;10.58;;;;;;;6.79;54.52;101729.91;1794950;79;21449;-83
2022/05/05 01:14:38;;;;;;;21.70;10.45;;;;;;;6.87;54.54;101733.33;1793860;78;21541;-86
2022/05/05 01:17:05;;;;;;;24.20;10.20;;;;;;;6.93;54.39;101726.73;1793404;79;21090;-82
2022/05/05 01:19:35;;;;;;;20.70;10.63;;;;;;;6.98;54.36;101729.59;1793573;79;21082;-85
2022/05/05 01:22:06;;;;;;;25.60;10.70;;;;;;;7.03;54.46;101729.86;1793403;79;21798;-81
2022/05/05 01:30:05;;;;;;;21.62;11.18;;;;;;;7.04;54.08;101699.84;1793583;79;21762;-84
2022/05/05 01:32:32;;;;;;;18.48;11.08;;;;;;;7.16;53.98;101718.81;1794418;79;21037;-83
2022/05/05 01:34:59;;;;;;;18.12;10.90;;;;;;;7.23;54.04;101715.25;1784738;79;21715;-85
2022/05/05 01:37:27;;;;;;;20.37;11.12;;;;;;;7.28;53.95;101718.61;1787714;79;21677;-85
2022/05/05 01:39:57;;;;;;;21.60;10.80;;;;;;;7.33;54.07;101718.84;1777494;79;21070;-86
2022/05/05 01:42:25;;;;;;;20.90;10.30;;;;;;;7.35;53.81;101714.16;1787444;78;21550;-83
2022/05/05 01:44:53;;;;;;;19.07;9.93;;;;;;;7.37;54.20;101714.25;1790479;79;21050;-85
2022/05/05 01:47:19;;;;;;;21.93;10.03;;;;;;;7.40;54.27;101710.08;1790684;79;21752;-83
2022/05/05 01:49:46;;;;;;;19.05;10.65;;;;;;;7.42;53.96;101714.09;1788894;79;21327;-85
2022/05/05 01:52:13;;;;;;;23.60;11.97;;;;;;;7.45;53.75;101715.96;1790335;79;21084;-84
2022/05/05 01:54:40;;;;;;;19.52;10.65;;;;;;;7.46;53.28;101719.98;1779945;79;21077;-85
2022/05/05 01:57:10;;;;;;;18.90;11.55;;;;;;;7.46;53.37;101718.67;1779435;79;21114;-83
2022/05/05 01:59:45;;;;;;;23.62;11.35;;;;;;;7.46;53.42;101717.36;1711997;81;22743;-82
2022/05/05 02:02:11;;;;;;;21.68;11.25;;;;;;;7.46;53.31;101719.98;1726414;82;21083;-86
2022/05/05 02:04:44;;;;;;;21.50;11.88;;;;;;;7.48;53.32;101718.34;1756170;80;21065;-86
2022/05/05 02:07:11;;;;;;;20.37;10.60;;;;;;;7.50;53.20;101710.14;1729722;82;21462;-84
2022/05/05 02:09:40;;;;;;;23.40;10.90;;;;;;;7.50;53.34;101707.53;1730369;81;21041;-84
2022/05/05 02:12:08;;;;;;;23.65;11.57;;;;;;;7.50;53.51;101700.98;1750674;80;21759;-87
2022/05/05 02:14:35;;;;;;;27.95;12.37;;;;;;;7.49;53.23;101696.58;1726428;82;21612;-84
2022/05/05 02:17:02;;;;;;;23.65;13.32;;;;;;;7.48;53.26;101691.25;1750910;80;21045;-84
2022/05/05 02:19:29;;;;;;;29.72;14.25;;;;;;;7.47;53.41;101698.22;1755759;80;21371;-87
2022/05/05 02:21:55;;;;;;;31.30;13.85;;;;;;;7.48;53.79;101712.20;1750538;80;21076;-87
2022/05/05 02:24:22;;;;;;;23.45;12.47;;;;;;;7.49;54.17;101730.63;1736385;80;22427;-86
2022/05/05 02:26:49;;;;;;;22.05;10.70;;;;;;;7.50;53.88;101721.05;1749820;80;21112;-84
2022/05/05 02:29:16;;;;;;;21.95;11.12;;;;;;;7.48;53.62;101704.34;1725973;82;21055;-83
2022/05/05 02:31:43;;;;;;;18.25;9.83;;;;;;;7.46;53.57;101717.36;1759255;78;21069;-84
2022/05/05 02:34:11;;;;;;;20.00;9.93;;;;;;;7.50;53.53;101726.28;1729753;82;21134;-86
2022/05/05 02:39:25;;;;;;;24.12;11.15;;;;;;;7.49;53.32;101693.03;1733166;82;21090;-86
2022/05/05 02:41:52;;;;;;;22.20;9.98;;;;;;;7.48;53.34;101699.11;1726104;82;21628;-86
2022/05/05 02:44:19;;;;;;;24.95;10.55;;;;;;;7.49;53.38;101707.05;1732065;80;21074;-84
2022/05/05 02:46:45;;;;;;;21.68;9.63;;;;;;;7.51;53.21;101722.44;1733731;82;21046;-85
2022/05/05 02:49:13;;;;;;;20.57;10.00;;;;;;;7.51;53.14;101713.69;1727573;82;21762;-85
2022/05/05 02:51:40;;;;;;;22.65;9.33;;;;;;;7.48;53.07;101694.77;1726571;81;21078;-85
2022/05/05 02:56:52;;;;;;;19.15;9.38;;;;;;;7.48;52.86;101690.83;1708324;82;21133;-81
2022/05/05 02:59:20;;;;;;;19.52;10.80;;;;;;;7.49;52.95;101679.94;1748567;80;21594;-85
2022/05/05 03:01:47;;;;;;;19.73;11.05;;;;;;;7.53;53.06;101683.23;1737451;80;22242;-84
2022/05/05 03:04:13;;;;;;;24.00;10.85;;;;;;;7.52;53.19;101694.09;1723517;81;21632;-87
2022/05/05 03:06:40;;;;;;;20.08;10.35;;;;;;;7.52;53.32;101696.72;1755334;81;21030;-86
2022/05/05 03:09:07;;;;;;;21.68;10.95;;;;;;;7.51;53.39;101692.73;1746754;81;21113;-83
2022/05/05 03:11:36;;;;;;;23.80;10.40;;;;;;;7.51;53.36;101681.84;1741006;81;21447;-85
2022/05/05 03:14:06;;;;;;;17.20;10.32;;;;;;;7.51;53.39;101664.80;1744359;81;22548;-85
2022/05/05 03:16:36;;;;;;;19.07;10.55;;;;;;;7.50;53.30;101672.16;1751805;81;21042;-85
2022/05/05 03:19:03;;;;;;;21.40;10.95;;;;;;;7.50;53.41;101676.09;1739428;81;21319;-85
2022/05/05 03:21:34;;;;;;;24.40;11.40;;;;;;;7.53;53.55;101689.78;1720589;82;21118;-84
2022/05/05 03:24:01;;;;;;;20.25;11.65;;;;;;;7.59;53.67;101691.41;1744877;81;21065;-84
2022/05/05 03:26:28;;;;;;;20.80;11.43;;;;;;;7.64;53.71;101686.38;1741209;82;21767;-85
2022/05/05 03:28:55;;;;;;;22.10;10.82;;;;;;;7.67;53.67;101680.89;1754188;81;21053;-84
2022/05/05 03:31:23;;;;;;;24.50;11.50;;;;;;;7.72;53.77;101686.39;1726253;82;21099;-84
2022/05/05 03:33:50;;;;;;;17.35;10.10;;;;;;;7.74;53.84;101684.33;1752858;81;21081;-86
2022/05/05 03:36:17;;;;;;;20.15;10.35;;;;;;;7.73;53.99;101678.61;1732700;82;21090;-85
2022/05/05 03:38:44;;;;;;;23.45;12.43;;;;;;;7.77;54.05;101674.40;1761541;80;22537;-86
2022/05/05 03:41:11;;;;;;;26.20;12.05;;;;;;;7.79;54.17;101674.98;1706364;82;21030;-85
2022/05/05 03:43:38;;;;;;;20.68;11.45;;;;;;;7.83;54.40;101686.91;1710641;82;21037;-84
2022/05/05 03:46:06;;;;;;;31.40;12.78;;;;;;;7.86;54.35;101680.53;1732413;81;21053;-86
2022/05/05 03:48:34;;;;;;;28.45;12.33;;;;;;;7.89;54.52;101682.90;1742823;80;21010;-84
2022/05/05 03:51:01;;;;;;;20.40;10.50;;;;;;;7.93;54.54;101680.91;1731054;82;23169;-86
2022/05/05 03:53:28;;;;;;;23.12;10.88;;;;;;;7.93;54.09;101680.91;1727454;81;21025;-86
2022/05/05 03:55:55;;;;;;;21.55;10.90;;;;;;;7.93;53.95;101670.85;1733680;82;21820;-87
2022/05/05 03:58:21;;;;;;;25.35;11.33;;;;;;;7.90;53.94;101672.92;1764180;80;21038;-82
2022/05/05 04:00:48;;;;;;;27.98;12.20;;;;;;;7.86;53.78;101664.38;1728798;82;21038;-90
2022/05/05 04:03:43;;;;;;;20.32;11.03;;;;;;;7.88;53.76;101664.08;1737144;81;21776;-85
2022/05/05 04:06:05;;;;;;;22.75;11.03;;;;;;;7.93;53.80;101660.36;1740204;81;21072;-83
2022/05/05 04:08:33;;;;;;;22.40;11.28;;;;;;;7.95;53.67;101667.47;1713277;82;21098;-84
2022/05/05 04:11:01;;;;;;;19.62;11.35;;;;;;;7.97;53.68;101654.03;1754691;80;21034;-84
2022/05/05 04:13:28;;;;;;;22.67;11.25;;;;;;;8.02;53.72;101657.31;1723850;81;21124;-82
2022/05/05 04:15:55;;;;;;;23.80;12.55;;;;;;;8.06;53.67;101664.09;1726370;81;23021;-86
2022/05/05 04:18:21;;;;;;;23.70;12.78;;;;;;;8.12;53.63;101667.00;1744219;79;21069;-83
2022/05/05 04:20:48;;;;;;;22.37;12.40;;;;;;;8.18;53.60;101669.95;1732893;81;21137;-83
2022/05/05 04:23:15;;;;;;;20.35;11.65;;;;;;;8.24;53.48;101669.74;1743917;81;21148;-85
2022/05/05 04:25:42;;;;;;;23.35;11.85;;;;;;;8.32;53.28;101678.48;1724802;82;21017;-86
2022/05/05 04:28:16;;;;;;;26.12;12.58;;;;;;;8.39;53.18;101684.95;1756086;81;21753;-89
2022/05/05 04:30:42;;;;;;;28.25;12.95;;;;;;;8.45;53.03;101685.27;1729362;82;21039;-86
2022/05/05 04:33:09;;;;;;;26.70;12.00;;;;;;;8.52;53.00;101673.33;1712031;81;21140;-84
2022/05/05 04:35:36;;;;;;;25.00;11.93;;;;;;;8.56;52.88;101681.44;1727571;82;21215;-84
2022/05/05 04:38:04;;;;;;;21.17;10.82;;;;;;;8.60;52.82;101682.48;1746913;81;21935;-85
2022/05/05 04:40:31;;;;;;;24.67;10.23;;;;;;;8.64;52.79;101688.79;1728176;82;22556;-87
2022/05/05 04:42:58;;;;;;;27.25;11.63;;;;;;;8.69;52.78;101685.55;1750524;81;21062;-83
2022/05/05 04:45:25;;;;;;;23.30;11.78;;;;;;;8.77;52.85;101688.96;1735618;82;21173;-85
2022/05/05 04:47:52;;;;;;;27.82;12.20;;;;;;;8.84;52.84;101688.40;1746098;81;21061;-83
2022/05/05 04:50:19;;;;;;;19.35;11.85;;;;;;;8.92;52.87;101683.11;1735881;82;21113;-83
2022/05/05 04:52:45;;;;;;;20.32;10.93;;;;;;;9.02;52.88;101683.12;1757019;81;22554;-83
2022/05/05 04:55:12;;;;;;;20.32;11.38;;;;;;;9.12;52.88;101691.50;1720760;82;21066;-82
2022/05/05 04:57:39;;;;;;;23.50;11.05;;;;;;;9.22;52.72;101678.37;1734397;81;21080;-84
2022/05/05 05:00:07;;;;;;;27.20;11.08;;;;;;;9.34;52.69;101680.22;1733292;81;21161;-80
2022/05/05 05:02:34;;;;;;;21.90;9.45;;;;;;;9.46;52.59;101678.97;1742721;81;21100;-83
2022/05/05 05:05:01;;;;;;;17.48;8.20;;;;;;;9.58;52.43;101672.95;1724475;81;21752;-84
2022/05/05 05:07:27;;;;;;;17.67;8.20;;;;;;;9.69;52.15;101680.00;1741903;81;21264;-81
2022/05/05 05:09:54;;;;;;;15.38;7.95;;;;;;;9.79;51.88;101679.55;1738844;81;21945;-83
2022/05/05 05:12:21;;;;;;;15.72;7.60;;;;;;;9.98;51.84;101670.70;1744139;81;21548;-80
2022/05/05 05:14:48;;;;;;;18.77;8.88;;;;;;;10.27;51.84;101673.24;1737092;81;21061;-82
2022/05/05 05:17:15;;;;;;;22.95;10.80;;;;;;;10.65;51.72;101673.03;1741755;81;21945;-82
2022/05/05 05:19:42;;;;;;;24.20;10.82;;;;;;;10.92;51.13;101671.86;1744353;80;22545;-81
2022/05/05 05:22:09;;;;;;;21.95;10.38;;;;;;;11.04;50.86;101669.71;1751842;80;21907;-86
2022/05/05 05:24:37;;;;;;;25.68;12.35;;;;;;;11.18;50.58;101673.28;1746086;81;21238;-80
2022/05/05 05:27:05;;;;;;;23.12;10.82;;;;;;;11.30;50.22;101672.44;1758237;80;21545;-82
2022/05/05 05:29:31;;;;;;;15.93;9.25;;;;;;;11.42;50.03;101669.34;1754713;80;21724;-83
2022/05/05 05:31:59;;;;;;;18.90;7.85;;;;;;;11.57;49.82;101673.84;1749939;80;21069;-85
2022/05/05 05:34:26;;;;;;;13.48;7.17;;;;;;;11.72;49.27;101671.28;1727100;81;21090;-86
2022/05/05 05:36:52;;;;;;;12.82;6.72;;;;;;;11.81;49.07;101671.17;1746415;81;21130;-83
2022/05/05 05:39:19;;;;;;;8.70;5.80;;;;;;;11.92;48.72;101673.30;1729887;81;21113;-83
2022/05/05 05:41:46;;;;;;;11.03;5.60;;;;;;;11.96;48.27;101673.47;1730632;81;21894;-82
2022/05/05 05:44:12;;;;;;;11.20;5.33;;;;;;;12.02;48.11;101669.72;1735743;81;21055;-81
2022/05/05 05:46:39;;;;;;;15.83;6.35;;;;;;;12.12;47.98;101675.30;1737948;81;21134;-84
2022/05/05 05:49:06;;;;;;;10.10;6.70;;;;;;;12.18;47.73;101682.09;1743209;81;21127;-84
2022/05/05 05:51:36;;;;;;;13.83;6.10;;;;;;;12.21;47.61;101681.78;1745564;80;21612;-81
2022/05/05 05:54:04;;;;;;;10.08;5.90;;;;;;;12.24;47.34;101679.69;1726352;81;21755;-81
2022/05/05 05:56:31;;;;;;;15.08;7.22;;;;;;;12.29;47.30;101679.39;1746988;81;21139;-81
2022/05/05 05:58:58;;;;;;;20.30;6.17;;;;;;;12.38;47.09;101692.89;1749360;80;21113;-81
2022/05/05 06:03:53;;;;;;;15.40;5.62;;;;;;;12.46;46.94;101702.38;1708917;81;21119;-81
2022/05/05 06:03:53;;;;;;;13.65;5.30;;;;;;;12.54;46.78;101679.78;1751994;81;21057;-80
2022/05/05 06:06:21;;;;;;;14.83;6.40;;;;;;;12.71;46.73;101693.52;1750544;80;22465;-80
2022/05/05 06:08:49;;;;;;;9.25;4.58;;;;;;;12.93;46.40;101685.84;1726240;81;21092;-82
2022/05/05 06:11:17;;;;;;;5.95;4.03;;;;;;;13.19;46.09;101683.05;1749152;80;21097;-81
2022/05/05 06:13:44;;;;;;;14.18;4.95;;;;;;;13.41;45.70;101667.41;1736147;81;21619;-80
2022/05/05 06:16:11;;;;;;;18.00;8.28;;;;;;;13.63;45.35;101665.34;1730969;81;21060;-79
2022/05/05 06:18:38;;;;;;;11.53;4.72;;;;;;;13.77;45.04;101667.95;1734020;81;22913;-79
2022/05/05 06:21:04;;;;;;;11.80;4.83;;;;;;;13.69;44.63;101655.84;1747903;81;21092;-81
2022/05/05 06:23:31;;;;;;;9.83;4.50;;;;;;;13.76;44.33;101675.44;1734373;81;21093;-79
2022/05/05 06:25:58;;;;;;;10.55;4.47;;;;;;;13.75;44.53;101676.27;1751988;80;21171;-79
2022/05/05 06:28:25;;;;;;;11.33;5.08;;;;;;;13.79;44.35;101676.81;1711481;82;21080;-81
2022/05/05 06:30:52;;;;;;;11.75;4.60;;;;;;;13.80;44.32;101679.95;1751899;81;21786;-79
2022/05/05 06:33:19;;;;;;;20.80;5.53;;;;;;;13.84;44.33;101676.52;1740833;81;21069;-80
2022/05/05 06:35:45;;;;;;;15.08;4.62;;;;;;;13.91;44.41;101668.33;1735437;81;21070;-80
2022/05/05 06:38:14;;;;;;;22.22;5.80;;;;;;;14.01;44.44;101675.64;1750814;81;21108;-81
2022/05/05 06:40:42;;;;;;;14.43;4.90;;;;;;;14.08;44.37;101680.67;1746395;81;21124;-82
2022/05/05 06:43:09;;;;;;;18.32;4.90;;;;;;;14.09;44.19;101685.98;1759341;79;21948;-83
2022/05/05 06:45:36;;;;;;;14.83;4.08;;;;;;;14.12;44.35;101681.22;1753687;80;21660;-83
2022/05/05 06:48:04;;;;;;;8.80;4.40;;;;;;;14.19;44.24;101687.14;1745944;80;21579;-81
2022/05/05 06:50:31;;;;;;;13.50;5.85;;;;;;;14.27;44.29;101676.30;1753574;80;21096;-81
2022/05/05 06:53:00;;;;;;;14.87;5.47;;;;;;;14.45;44.26;101680.23;1754102;80;21105;-81
2022/05/05 06:55:28;;;;;;;9.63;4.83;;;;;;;14.62;44.22;101673.64;1743818;81;21070;-83
2022/05/05 06:57:54;;;;;;;23.18;8.00;;;;;;;14.82;44.16;101678.05;1746526;81;21070;-83
2022/05/05 07:00:21;;;;;;;11.60;5.62;;;;;;;15.01;44.08;101667.41;1751330;81;21169;-82
2022/05/05 07:02:48;;;;;;;11.28;5.40;;;;;;;15.34;43.96;101661.92;1747516;81;21078;-80
2022/05/05 07:05:24;;;;;;;18.20;6.28;;;;;;;15.67;43.70;101661.20;1742642;81;21600;-83
2022/05/05 07:07:51;;;;;;;15.00;5.47;;;;;;;15.99;43.63;101658.27;1753757;81;21816;-84
2022/05/05 07:13:04;;;;;;;13.72;5.62;;;;;;;16.68;43.04;101654.94;1750043;81;21073;-84
2022/05/05 07:15:31;;;;;;;13.32;5.55;;;;;;;16.79;42.51;101659.52;1740302;81;21086;-81
2022/05/05 07:18:00;;;;;;;13.85;5.50;;;;;;;16.82;42.19;101661.83;1735477;81;21133;-81
2022/05/05 07:20:27;;;;;;;18.77;5.37;;;;;;;16.91;42.06;101658.38;1736901;81;21757;-81
2022/05/05 07:22:56;;;;;;;15.95;6.08;;;;;;;17.06;41.95;101664.34;1738102;81;21049;-81
2022/05/05 07:25:22;;;;;;;10.75;5.12;;;;;;;17.27;41.79;101667.73;1741472;81;21592;-84
2022/05/05 07:27:49;;;;;;;14.07;5.25;;;;;;;17.58;41.85;101664.08;1733824;81;21686;-80
2022/05/05 07:30:16;;;;;;;8.65;4.80;;;;;;;17.91;41.64;101661.34;1734997;81;21094;-81
2022/05/05 07:32:43;;;;;;;13.68;6.28;;;;;;;18.30;41.45;101658.13;1734958;81;21742;-83
2022/05/05 07:35:11;;;;;;;9.48;5.53;;;;;;;18.56;40.95;101664.98;1742327;81;21069;-80
2022/05/05 07:37:39;;;;;;;12.15;4.97;;;;;;;18.67;40.81;101664.14;1735823;81;21087;-81
2022/05/05 07:40:07;;;;;;;9.03;5.53;;;;;;;18.88;40.57;101656.73;1738957;81;21643;-83
2022/05/05 07:42:35;;;;;;;12.90;5.08;;;;;;;19.06;40.20;101659.49;1711021;82;21070;-84
2022/05/05 07:45:06;;;;;;;15.28;5.17;;;;;;;19.14;39.76;101656.85;1746253;81;21788;-83
2022/05/05 07:47:33;;;;;;;12.23;5.70;;;;;;;19.25;39.80;101652.90;1732223;80;21113;-83
2022/05/05 07:50:03;;;;;;;10.88;5.25;;;;;;;19.50;39.84;101645.84;1737730;81;22120;-83
2022/05/05 07:52:30;;;;;;;8.63;4.92;;;;;;;19.67;39.45;101650.80;1710064;82;21097;-84
2022/05/05 07:54:57;;;;;;;10.93;5.37;;;;;;;19.74;39.07;101652.59;1751195;81;21506;-83
2022/05/05 07:57:24;;;;;;;12.23;5.67;;;;;;;19.78;38.93;101656.17;1748836;81;21751;-84
2022/05/05 07:59:51;;;;;;;9.73;5.40;;;;;;;19.93;39.17;101653.95;1748055;81;21074;-82
2022/05/05 08:02:18;;;;;;;9.20;5.62;;;;;;;20.13;38.87;101653.52;1740429;81;21064;-83
2022/05/05 08:04:45;;;;;;;9.23;4.95;;;;;;;20.25;38.70;101648.61;1738693;81;21074;-81
2022/05/05 08:07:12;;;;;;;7.85;5.50;;;;;;;20.40;38.39;101649.04;1739931;81;21801;-84
2022/05/05 08:09:39;;;;;;;15.15;5.35;;;;;;;20.46;38.37;101647.72;1747670;81;21782;-81
2022/05/05 08:12:07;;;;;;;14.15;5.17;;;;;;;20.56;38.23;101644.12;1744415;81;21344;-81
2022/05/05 08:14:34;;;;;;;8.73;5.40;;;;;;;20.63;38.19;101646.38;1725243;81;21105;-81
2022/05/05 08:17:01;;;;;;;8.30;4.60;;;;;;;20.63;38.11;101645.05;1717040;81;21088;-81
2022/05/05 08:19:27;;;;;;;10.03;5.15;;;;;;;20.64;38.03;101652.16;1745555;81;21098;-81
2022/05/05 08:21:54;;;;;;;13.40;5.95;;;;;;;20.66;37.81;101648.14;1739706;81;21788;-81
2022/05/05 08:29:51;;;;;;;12.53;4.72;;;;;;;20.32;37.60;101646.38;1746751;81;21532;-82
2022/05/05 08:32:18;;;;;;;8.83;5.35;;;;;;;20.51;37.74;101653.05;1742664;81;21102;-84
2022/05/05 08:34:45;;;;;;;12.20;5.35;;;;;;;20.67;37.68;101646.81;1740671;81;22610;-81
2022/05/05 08:37:12;;;;;;;12.53;5.20;;;;;;;20.93;37.71;101653.87;1748127;81;21614;-81
2022/05/05 08:39:39;;;;;;;10.00;5.10;;;;;;;21.14;37.50;101655.58;1740081;81;21070;-84
2022/05/05 08:42:07;;;;;;;15.95;6.03;;;;;;;21.29;37.28;101653.28;1741722;81;21046;-84
2022/05/05 08:44:34;;;;;;;10.72;5.35;;;;;;;21.35;37.13;101651.90;1740476;82;21574;-83
2022/05/05 08:47:01;;;;;;;10.43;5.85;;;;;;;21.40;37.19;101655.88;1740326;82;21186;-83
2022/05/05 08:49:28;;;;;;;12.37;5.25;;;;;;;21.40;37.13;101654.53;1744200;81;21128;-84
2022/05/05 08:51:55;;;;;;;9.38;5.03;;;;;;;21.50;37.10;101665.23;1739836;81;21105;-81
2022/05/05 08:54:25;;;;;;;15.58;5.70;;;;;;;21.59;37.05;101664.76;1734750;82;21082;-83
2022/05/05 08:56:52;;;;;;;11.65;5.87;;;;;;;21.79;36.80;101676.23;1728501;81;21192;-83
2022/05/05 08:59:20;;;;;;;16.15;6.08;;;;;;;21.99;36.60;101669.83;1731765;81;21707;-83
2022/05/05 09:01:46;;;;;;;11.63;5.37;;;;;;;21.99;36.60;101669.83;1730319;81;21376;-80
2022/05/05 09:04:13;;;;;;;12.30;6.62;;;;;;;22.04;36.24;101639.86;1732108;82;21098;-80
2022/05/05 09:06:49;;;;;;;8.35;6.17;;;;;;;22.04;36.24;101639.86;1732737;81;21502;-80
2022/05/05 09:09:33;;;;;;;7.78;5.33;;;;;;;22.26;36.50;101654.89;1733443;81;21086;-80
2022/05/05 09:12:14;;;;;;;9.33;5.30;;;;;;;22.32;36.00;101662.88;1724289;82;21827;-83
2022/05/05 09:14:55;;;;;;;10.55;5.75;;;;;;;22.26;35.89;101660.69;1731788;82;21067;-81
2022/05/05 09:17:24;;;;;;;10.35;6.03;;;;;;;22.22;35.85;101658.45;1729986;81;21138;-83
2022/05/05 09:19:55;;;;;;;6.10;5.17;;;;;;;22.21;35.72;101662.05;1725626;81;21582;-80
2022/05/05 09:22:25;;;;;;;12.33;5.37;;;;;;;22.08;35.84;101652.34;1715856;81;21161;-80
2022/05/05 09:25:01;;;;;;;13.22;5.58;;;;;;;22.08;35.83;101644.30;1728012;81;21834;-80
2022/05/05 09:27:33;;;;;;;8.45;4.58;;;;;;;22.32;35.64;101670.05;1718185;82;22697;-80
2022/05/05 09:30:11;;;;;;;8.25;5.03;;;;;;;22.32;35.64;101670.05;1715626;82;21137;-81
2022/05/05 09:32:47;;;;;;;9.45;5.70;;;;;;;22.47;35.72;101672.58;1717841;81;21463;-81
2022/05/05 09:35:17;;;;;;;10.28;5.05;;;;;;;22.65;35.52;101675.50;1722590;82;22158;-81
2022/05/05 09:37:50;;;;;;;12.68;4.78;;;;;;;22.85;35.33;101675.77;1719420;82;21761;-81
2022/05/05 09:40:19;;;;;;;9.73;4.85;;;;;;;22.89;35.15;101682.88;1726296;82;21087;-80
2022/05/05 09:42:51;;;;;;;11.53;4.97;;;;;;;22.84;35.03;101689.65;1729731;82;21154;-81
2022/05/05 09:45:23;;;;;;;12.15;4.25;;;;;;;22.75;34.90;101687.06;1744068;81;21077;-81
2022/05/05 09:47:58;;;;;;;11.15;4.78;;;;;;;22.58;35.10;101687.23;1737515;81;21089;-84
2022/05/05 09:50:26;;;;;;;9.50;4.92;;;;;;;22.56;35.40;101691.73;1748437;80;21755;-84
2022/05/05 09:58:35;;;;;;;13.60;5.20;;;;;;;22.47;35.23;101687.33;1725193;83;21140;-85
2022/05/05 10:01:10;;;;;;;10.40;4.75;;;;;;;22.50;35.31;101689.08;1741165;82;21160;-82
2022/05/05 10:04:05;;;;;;;8.50;4.20;;;;;;;22.43;35.19;101680.65;1725689;83;21752;-82
2022/05/05 10:06:43;;;;;;;8.35;4.40;;;;;;;22.32;35.19;101665.56;1741815;81;21086;-87
2022/05/05 10:09:13;;;;;;;14.23;4.58;;;;;;;22.38;35.19;101688.75;1724085;81;21085;-80
2022/05/05 10:11:40;;;;;;;6.05;3.65;;;;;;;22.35;35.19;101687.43;1736608;82;21309;-83
2022/05/05 10:14:09;;;;;;;7.00;4.35;;;;;;;22.35;35.19;101687.43;1732262;81;21337;-82
2022/05/05 10:16:37;;;;;;;7.20;4.22;;;;;;;22.26;35.34;101663.38;1730615;81;21794;-82
2022/05/05 10:19:06;;;;;;;9.55;4.28;;;;;;;22.39;35.26;101690.55;1748199;81;21149;-82
2022/05/05 10:21:55;;;;;;;15.60;4.35;;;;;;;22.38;35.35;101689.22;1748815;81;21066;-81
2022/05/05 10:24:27;;;;;;;9.68;4.00;;;;;;;22.35;35.34;101684.75;1727800;82;21076;-82
2022/05/05 10:26:56;;;;;;;8.03;3.87;;;;;;;22.36;35.73;101681.64;1738850;82;21504;-84
2022/05/05 10:29:36;;;;;;;6.67;3.60;;;;;;;22.37;36.28;101685.63;1727906;81;22601;-85
2022/05/05 10:32:15;;;;;;;6.15;4.22;;;;;;;22.47;36.34;101690.02;1754928;81;21066;-83
2022/05/05 10:34:45;;;;;;;10.50;4.37;;;;;;;22.78;36.19;101692.84;1707067;81;21073;-80
2022/05/05 10:37:14;;;;;;;12.33;5.67;;;;;;;22.78;36.19;101692.84;1758571;81;21097;-80
2022/05/05 10:39:46;;;;;;;8.70;5.37;;;;;;;22.70;35.95;101695.61;1728666;81;21673;-83
2022/05/05 10:42:21;;;;;;;10.30;4.22;;;;;;;22.56;35.83;101699.78;1759410;80;21762;-80
2022/05/05 10:45:28;;;;;;;8.08;4.25;;;;;;;22.31;36.25;101705.80;1728149;81;21657;-84
2022/05/05 10:48:06;;;;;;;6.03;4.05;;;;;;;22.19;36.39;101705.89;1729108;82;21074;-81
2022/05/05 10:50:39;;;;;;;7.22;5.67;;;;;;;22.08;36.92;101707.30;1730648;82;21454;-80
2022/05/05 10:53:08;;;;;;;10.08;4.25;;;;;;;22.00;36.79;101707.78;1734967;82;21652;-81
2022/05/05 10:55:45;;;;;;;8.60;4.15;;;;;;;21.69;37.18;101680.74;1743114;81;21936;-84
2022/05/05 10:58:15;;;;;;;4.95;3.98;;;;;;;21.68;37.18;101711.14;1727541;81;21265;-83
2022/05/05 11:00:43;;;;;;;7.37;4.65;;;;;;;21.52;37.33;101700.94;1739407;82;21130;-84
2022/05/05 11:03:15;;;;;;;9.48;5.95;;;;;;;21.37;37.38;101706.34;1727735;81;21088;-79
2022/05/05 11:05:42;;;;;;;9.28;4.55;;;;;;;21.26;37.56;101698.80;1738597;82;21118;-80
2022/05/05 11:08:19;;;;;;;10.80;5.22;;;;;;;21.13;37.72;101704.22;1726984;81;21602;-80
2022/05/05 11:11:40;;;;;;;7.53;4.55;;;;;;;20.97;37.93;101691.78;1744711;81;21067;-80
2022/05/05 11:13:39;;;;;;;7.62;5.28;;;;;;;20.96;38.10;101708.72;1718176;81;21299;-80
2022/05/05 11:22:19;;;;;;;7.43;4.30;;;;;;;20.56;38.81;101711.44;1757413;80;21607;-83
2022/05/05 11:24:47;;;;;;;6.80;6.10;;;;;;;20.33;39.40;101713.68;1726741;81;21073;-84
2022/05/05 11:27:17;;;;;;;7.83;4.78;;;;;;;20.04;39.62;101712.31;1757378;80;21069;-84
2022/05/05 11:29:55;;;;;;;7.30;5.83;;;;;;;19.87;39.99;101709.62;1740383;82;21098;-81
2022/05/05 11:32:31;;;;;;;6.78;4.70;;;;;;;19.61;40.40;101705.09;1738246;82;21070;-82
2022/05/05 11:34:59;;;;;;;5.28;4.45;;;;;;;19.56;40.84;101703.30;1727031;81;23149;-83
2022/05/05 11:37:29;;;;;;;5.08;4.28;;;;;;;19.66;41.15;101693.07;1738713;82;21068;-80
2022/05/05 11:39:56;;;;;;;8.35;5.10;;;;;;;19.74;41.11;101696.67;1727566;82;21574;-80
2022/05/05 11:42:23;;;;;;;13.00;10.10;;;;;;;19.63;41.17;101699.73;1753161;80;21564;-81
2022/05/05 11:44:50;;;;;;;12.05;6.40;;;;;;;19.61;41.42;101700.17;1729266;81;21080;-80
2022/05/05 11:47:21;;;;;;;8.35;6.12;;;;;;;19.58;41.61;101701.52;1749260;80;22879;-81
2022/05/05 11:49:52;;;;;;;8.20;5.92;;;;;;;19.59;41.94;101702.83;1740641;80;21092;-81
2022/05/05 11:52:20;;;;;;;8.63;5.62;;;;;;;19.68;42.14;101698.42;1747999;81;21093;-83
2022/05/05 11:54:49;;;;;;;10.15;5.97;;;;;;;19.72;42.21;101702.88;1750467;81;21134;-84
2022/05/05 11:57:39;;;;;;;10.65;6.62;;;;;;;19.83;42.34;101698.94;1737559;81;21741;-84
2022/05/05 12:02:53;;;;;;;12.80;5.37;;;;;;;20.12;42.15;101697.20;1749816;81;21110;-84
2022/05/05 12:05:24;;;;;;;11.18;6.53;;;;;;;20.11;42.16;101701.20;1741238;81;22281;-81